sensor_id;sensor_type;location;lat;lon;timestamp;pressure;altitude;pressure_sealevel;temperature
9985;BMP180;16737;50.932;6.780;2023-08-12T00:01:47;100599.00;;;27.30
9985;BMP180;16737;50.932;6.780;2023-08-12T00:04:14;100602.00;;;27.30
9985;BMP180;16737;50.932;6.780;2023-08-12T00:06:42;100612.00;;;27.30
9985;BMP180;16737;50.932;6.780;2023-08-12T00:09:09;100613.00;;;27.30
9985;BMP180;16737;50.932;6.780;2023-08-12T00:11:37;100607.00;;;27.30
9985;BMP180;16737;50.932;6.780;2023-08-12T00:14:06;100607.00;;;27.20
9985;BMP180;16737;50.932;6.780;2023-08-12T00:16:33;100591.00;;;27.20
9985;BMP180;16737;50.932;6.780;2023-08-12T00:19:00;100589.00;;;27.20
9985;BMP180;16737;50.932;6.780;2023-08-12T00:21:27;100598.00;;;27.20
9985;BMP180;16737;50.932;6.780;2023-08-12T00:23:54;100579.00;;;27.20
9985;BMP180;16737;50.932;6.780;2023-08-12T00:26:21;100570.00;;;27.20
9985;BMP180;16737;50.932;6.780;2023-08-12T00:28:49;100586.00;;;27.20
9985;BMP180;16737;50.932;6.780;2023-08-12T00:31:18;100587.00;;;27.10
9985;BMP180;16737;50.932;6.780;2023-08-12T00:33:47;100576.00;;;27.10
9985;BMP180;16737;50.932;6.780;2023-08-12T00:36:14;100593.00;;;27.10
9985;BMP180;16737;50.932;6.780;2023-08-12T00:38:40;100587.00;;;27.00
9985;BMP180;16737;50.932;6.780;2023-08-12T00:41:07;100583.00;;;27.00
9985;BMP180;16737;50.932;6.780;2023-08-12T00:43:34;100578.00;;;27.00
9985;BMP180;16737;50.932;6.780;2023-08-12T00:46:01;100571.00;;;27.00
9985;BMP180;16737;50.932;6.780;2023-08-12T00:48:30;100566.00;;;26.90
9985;BMP180;16737;50.932;6.780;2023-08-12T00:50:57;100564.00;;;26.90
9985;BMP180;16737;50.932;6.780;2023-08-12T00:53:24;100549.00;;;26.90
9985;BMP180;16737;50.932;6.780;2023-08-12T00:55:53;100552.00;;;26.90
9985;BMP180;16737;50.932;6.780;2023-08-12T00:58:20;100565.00;;;26.90
9985;BMP180;16737;50.932;6.780;2023-08-12T01:00:47;100558.00;;;26.90
9985;BMP180;16737;50.932;6.780;2023-08-12T01:05:50;100552.00;;;26.80
9985;BMP180;16737;50.932;6.780;2023-08-12T01:08:17;100555.00;;;26.80
9985;BMP180;16737;50.932;6.780;2023-08-12T01:10:50;100548.00;;;26.70
9985;BMP180;16737;50.932;6.780;2023-08-12T01:13:30;100543.00;;;26.70
9985;BMP180;16737;50.932;6.780;2023-08-12T01:16:03;100535.00;;;26.70
9985;BMP180;16737;50.932;6.780;2023-08-12T01:18:33;100534.00;;;26.70
9985;BMP180;16737;50.932;6.780;2023-08-12T01:21:01;100531.00;;;26.60
9985;BMP180;16737;50.932;6.780;2023-08-12T01:23:31;100531.00;;;26.60
9985;BMP180;16737;50.932;6.780;2023-08-12T01:25:58;100519.00;;;26.60
9985;BMP180;16737;50.932;6.780;2023-08-12T01:28:25;100525.00;;;26.50
9985;BMP180;16737;50.932;6.780;2023-08-12T01:30:57;100525.00;;;26.50
9985;BMP180;16737;50.932;6.780;2023-08-12T01:33:33;100513.00;;;26.40
9985;BMP180;16737;50.932;6.780;2023-08-12T01:36:09;100516.00;;;26.40
9985;BMP180;16737;50.932;6.780;2023-08-12T01:38:41;100502.00;;;26.30
9985;BMP180;16737;50.932;6.780;2023-08-12T01:41:10;100491.00;;;26.30
9985;BMP180;16737;50.932;6.780;2023-08-12T01:43:38;100472.00;;;26.30
9985;BMP180;16737;50.932;6.780;2023-08-12T01:46:06;100509.00;;;26.20
9985;BMP180;16737;50.932;6.780;2023-08-12T01:48:33;100507.00;;;26.20
9985;BMP180;16737;50.932;6.780;2023-08-12T01:51:00;100500.00;;;26.10
9985;BMP180;16737;50.932;6.780;2023-08-12T01:53:27;100511.00;;;26.10
9985;BMP180;16737;50.932;6.780;2023-08-12T01:55:55;100501.00;;;26.10
9985;BMP180;16737;50.932;6.780;2023-08-12T01:58:22;100488.00;;;26.10
9985;BMP180;16737;50.932;6.780;2023-08-12T02:00:51;100499.00;;;26.10
9985;BMP180;16737;50.932;6.780;2023-08-12T02:03:18;100495.00;;;26.10
9985;BMP180;16737;50.932;6.780;2023-08-12T02:05:45;100498.00;;;26.10
9985;BMP180;16737;50.932;6.780;2023-08-12T02:08:13;100465.00;;;26.10
9985;BMP180;16737;50.932;6.780;2023-08-12T02:10:40;100484.00;;;26.00
9985;BMP180;16737;50.932;6.780;2023-08-12T02:13:08;100488.00;;;26.00
9985;BMP180;16737;50.932;6.780;2023-08-12T02:15:35;100493.00;;;26.00
9985;BMP180;16737;50.932;6.780;2023-08-12T02:18:02;100495.00;;;26.00
9985;BMP180;16737;50.932;6.780;2023-08-12T02:20:29;100464.00;;;25.90
9985;BMP180;16737;50.932;6.780;2023-08-12T02:22:56;100469.00;;;25.90
9985;BMP180;16737;50.932;6.780;2023-08-12T02:25:23;100481.00;;;25.90
9985;BMP180;16737;50.932;6.780;2023-08-12T02:27:50;100477.00;;;25.90
9985;BMP180;16737;50.932;6.780;2023-08-12T02:30:19;100484.00;;;25.90
9985;BMP180;16737;50.932;6.780;2023-08-12T02:32:46;100485.00;;;26.00
9985;BMP180;16737;50.932;6.780;2023-08-12T02:35:12;100488.00;;;26.00
9985;BMP180;16737;50.932;6.780;2023-08-12T02:37:39;100478.00;;;26.00
9985;BMP180;16737;50.932;6.780;2023-08-12T02:40:08;100474.00;;;26.00
9985;BMP180;16737;50.932;6.780;2023-08-12T02:42:36;100481.00;;;26.00
9985;BMP180;16737;50.932;6.780;2023-08-12T02:45:04;100483.00;;;26.00
9985;BMP180;16737;50.932;6.780;2023-08-12T02:47:33;100480.00;;;26.00
9985;BMP180;16737;50.932;6.780;2023-08-12T02:50:00;100481.00;;;26.00
9985;BMP180;16737;50.932;6.780;2023-08-12T02:52:26;100468.00;;;26.10
9985;BMP180;16737;50.932;6.780;2023-08-12T02:54:54;100466.00;;;26.10
9985;BMP180;16737;50.932;6.780;2023-08-12T02:57:22;100464.00;;;26.10
9985;BMP180;16737;50.932;6.780;2023-08-12T02:59:49;100466.00;;;26.10
9985;BMP180;16737;50.932;6.780;2023-08-12T03:02:16;100463.00;;;26.10
9985;BMP180;16737;50.932;6.780;2023-08-12T03:04:44;100456.00;;;26.00
9985;BMP180;16737;50.932;6.780;2023-08-12T03:07:11;100451.00;;;26.10
9985;BMP180;16737;50.932;6.780;2023-08-12T03:09:38;100445.00;;;26.10
9985;BMP180;16737;50.932;6.780;2023-08-12T03:12:06;100438.00;;;26.10
9985;BMP180;16737;50.932;6.780;2023-08-12T03:14:33;100438.00;;;26.10
9985;BMP180;16737;50.932;6.780;2023-08-12T03:17:00;100391.00;;;26.00
9985;BMP180;16737;50.932;6.780;2023-08-12T03:19:27;100432.00;;;26.00
9985;BMP180;16737;50.932;6.780;2023-08-12T03:21:55;100426.00;;;26.00
9985;BMP180;16737;50.932;6.780;2023-08-12T03:24:22;100422.00;;;26.00
9985;BMP180;16737;50.932;6.780;2023-08-12T03:26:49;100426.00;;;26.00
9985;BMP180;16737;50.932;6.780;2023-08-12T03:29:16;100416.00;;;25.90
9985;BMP180;16737;50.932;6.780;2023-08-12T03:31:43;100412.00;;;25.90
9985;BMP180;16737;50.932;6.780;2023-08-12T03:34:10;100412.00;;;25.90
9985;BMP180;16737;50.932;6.780;2023-08-12T03:36:37;100407.00;;;25.90
9985;BMP180;16737;50.932;6.780;2023-08-12T03:39:06;100391.00;;;25.80
9985;BMP180;16737;50.932;6.780;2023-08-12T03:41:33;100401.00;;;25.80
9985;BMP180;16737;50.932;6.780;2023-08-12T03:44:00;100392.00;;;25.70
9985;BMP180;16737;50.932;6.780;2023-08-12T03:46:27;100381.00;;;25.70
9985;BMP180;16737;50.932;6.780;2023-08-12T03:48:54;100387.00;;;25.70
9985;BMP180;16737;50.932;6.780;2023-08-12T03:51:21;100376.00;;;25.60
9985;BMP180;16737;50.932;6.780;2023-08-12T03:53:48;100375.00;;;25.60
9985;BMP180;16737;50.932;6.780;2023-08-12T03:56:16;100371.00;;;25.60
9985;BMP180;16737;50.932;6.780;2023-08-12T03:58:43;100306.00;;;25.50
9985;BMP180;16737;50.932;6.780;2023-08-12T04:01:10;100371.00;;;25.50
9985;BMP180;16737;50.932;6.780;2023-08-12T04:03:37;100374.00;;;25.50
9985;BMP180;16737;50.932;6.780;2023-08-12T04:06:04;100371.00;;;25.40
9985;BMP180;16737;50.932;6.780;2023-08-12T04:08:31;100369.00;;;25.40
9985;BMP180;16737;50.932;6.780;2023-08-12T04:10:59;100369.00;;;25.40
9985;BMP180;16737;50.932;6.780;2023-08-12T04:13:27;100372.00;;;25.30
9985;BMP180;16737;50.932;6.780;2023-08-12T04:15:54;100360.00;;;25.30
9985;BMP180;16737;50.932;6.780;2023-08-12T04:18:21;100365.00;;;25.30
9985;BMP180;16737;50.932;6.780;2023-08-12T04:20:49;100376.00;;;25.30
9985;BMP180;16737;50.932;6.780;2023-08-12T04:23:17;100383.00;;;25.30
9985;BMP180;16737;50.932;6.780;2023-08-12T04:25:45;100380.00;;;25.30
9985;BMP180;16737;50.932;6.780;2023-08-12T04:28:12;100375.00;;;25.30
9985;BMP180;16737;50.932;6.780;2023-08-12T04:30:42;100381.00;;;25.30
9985;BMP180;16737;50.932;6.780;2023-08-12T04:33:09;100370.00;;;25.30
9985;BMP180;16737;50.932;6.780;2023-08-12T04:35:36;100362.00;;;25.30
9985;BMP180;16737;50.932;6.780;2023-08-12T04:38:03;100361.00;;;25.30
9985;BMP180;16737;50.932;6.780;2023-08-12T04:40:31;100352.00;;;25.30
9985;BMP180;16737;50.932;6.780;2023-08-12T04:42:59;100361.00;;;25.30
9985;BMP180;16737;50.932;6.780;2023-08-12T04:45:27;100357.00;;;25.20
9985;BMP180;16737;50.932;6.780;2023-08-12T04:47:57;100350.00;;;25.20
9985;BMP180;16737;50.932;6.780;2023-08-12T04:50:25;100353.00;;;25.20
9985;BMP180;16737;50.932;6.780;2023-08-12T04:52:52;100349.00;;;25.20
9985;BMP180;16737;50.932;6.780;2023-08-12T04:55:19;100347.00;;;25.20
9985;BMP180;16737;50.932;6.780;2023-08-12T04:57:45;100341.00;;;25.20
9985;BMP180;16737;50.932;6.780;2023-08-12T05:00:13;100330.00;;;25.20
9985;BMP180;16737;50.932;6.780;2023-08-12T05:02:40;100344.00;;;25.10
9985;BMP180;16737;50.932;6.780;2023-08-12T05:05:09;100337.00;;;25.20
9985;BMP180;16737;50.932;6.780;2023-08-12T05:07:36;100335.00;;;25.20
9985;BMP180;16737;50.932;6.780;2023-08-12T05:10:03;100338.00;;;25.20
9985;BMP180;16737;50.932;6.780;2023-08-12T05:12:30;100349.00;;;25.20
9985;BMP180;16737;50.932;6.780;2023-08-12T05:14:57;100342.00;;;25.20
9985;BMP180;16737;50.932;6.780;2023-08-12T05:17:24;100346.00;;;25.20
9985;BMP180;16737;50.932;6.780;2023-08-12T05:19:51;100356.00;;;25.30
9985;BMP180;16737;50.932;6.780;2023-08-12T05:22:19;100337.00;;;25.30
9985;BMP180;16737;50.932;6.780;2023-08-12T05:24:46;100342.00;;;25.30
9985;BMP180;16737;50.932;6.780;2023-08-12T05:27:13;100339.00;;;25.30
9985;BMP180;16737;50.932;6.780;2023-08-12T05:29:40;100337.00;;;25.40
9985;BMP180;16737;50.932;6.780;2023-08-12T05:32:07;100344.00;;;25.40
9985;BMP180;16737;50.932;6.780;2023-08-12T05:34:34;100349.00;;;25.40
9985;BMP180;16737;50.932;6.780;2023-08-12T05:37:01;100352.00;;;25.40
9985;BMP180;16737;50.932;6.780;2023-08-12T05:39:29;100360.00;;;25.40
9985;BMP180;16737;50.932;6.780;2023-08-12T05:41:56;100360.00;;;25.40
9985;BMP180;16737;50.932;6.780;2023-08-12T05:44:23;100349.00;;;25.40
9985;BMP180;16737;50.932;6.780;2023-08-12T05:46:50;100358.00;;;25.40
9985;BMP180;16737;50.932;6.780;2023-08-12T05:49:17;100359.00;;;25.50
9985;BMP180;16737;50.932;6.780;2023-08-12T05:51:44;100362.00;;;25.50
9985;BMP180;16737;50.932;6.780;2023-08-12T05:54:11;100367.00;;;25.50
9985;BMP180;16737;50.932;6.780;2023-08-12T05:56:39;100370.00;;;25.60
9985;BMP180;16737;50.932;6.780;2023-08-12T05:59:06;100365.00;;;25.60
9985;BMP180;16737;50.932;6.780;2023-08-12T06:01:33;100363.00;;;25.60
9985;BMP180;16737;50.932;6.780;2023-08-12T06:04:00;100370.00;;;25.60
9985;BMP180;16737;50.932;6.780;2023-08-12T06:06:27;100363.00;;;25.60
9985;BMP180;16737;50.932;6.780;2023-08-12T06:08:54;100359.00;;;25.60
9985;BMP180;16737;50.932;6.780;2023-08-12T06:11:21;100352.00;;;25.60
9985;BMP180;16737;50.932;6.780;2023-08-12T06:13:49;100348.00;;;25.60
9985;BMP180;16737;50.932;6.780;2023-08-12T06:16:16;100317.00;;;25.50
9985;BMP180;16737;50.932;6.780;2023-08-12T06:18:43;100345.00;;;25.50
9985;BMP180;16737;50.932;6.780;2023-08-12T06:21:09;100341.00;;;25.50
9985;BMP180;16737;50.932;6.780;2023-08-12T06:23:36;100337.00;;;25.50
9985;BMP180;16737;50.932;6.780;2023-08-12T06:26:03;100339.00;;;25.40
9985;BMP180;16737;50.932;6.780;2023-08-12T06:28:30;100353.00;;;25.40
9985;BMP180;16737;50.932;6.780;2023-08-12T06:30:58;100322.00;;;25.40
9985;BMP180;16737;50.932;6.780;2023-08-12T06:33:25;100320.00;;;25.40
9985;BMP180;16737;50.932;6.780;2023-08-12T06:35:52;100310.00;;;25.40
9985;BMP180;16737;50.932;6.780;2023-08-12T06:38:19;100304.00;;;25.30
9985;BMP180;16737;50.932;6.780;2023-08-12T06:40:47;100311.00;;;25.30
9985;BMP180;16737;50.932;6.780;2023-08-12T06:43:14;100318.00;;;25.30
9985;BMP180;16737;50.932;6.780;2023-08-12T06:45:40;100313.00;;;25.30
9985;BMP180;16737;50.932;6.780;2023-08-12T06:48:09;100316.00;;;25.30
9985;BMP180;16737;50.932;6.780;2023-08-12T06:50:36;100310.00;;;25.30
9985;BMP180;16737;50.932;6.780;2023-08-12T06:53:03;100313.00;;;25.30
9985;BMP180;16737;50.932;6.780;2023-08-12T06:55:30;100285.00;;;25.30
9985;BMP180;16737;50.932;6.780;2023-08-12T06:57:57;100288.00;;;25.30
9985;BMP180;16737;50.932;6.780;2023-08-12T07:00:24;100302.00;;;25.30
9985;BMP180;16737;50.932;6.780;2023-08-12T07:02:50;100282.00;;;25.30
9985;BMP180;16737;50.932;6.780;2023-08-12T07:05:19;100253.00;;;25.30
9985;BMP180;16737;50.932;6.780;2023-08-12T07:07:46;100265.00;;;25.30
9985;BMP180;16737;50.932;6.780;2023-08-12T07:10:13;100294.00;;;25.30
9985;BMP180;16737;50.932;6.780;2023-08-12T07:12:40;100298.00;;;25.30
9985;BMP180;16737;50.932;6.780;2023-08-12T07:15:08;100318.00;;;25.30
9985;BMP180;16737;50.932;6.780;2023-08-12T07:17:36;100323.00;;;25.30
9985;BMP180;16737;50.932;6.780;2023-08-12T07:20:04;100342.00;;;25.30
9985;BMP180;16737;50.932;6.780;2023-08-12T07:22:33;100337.00;;;25.30
9985;BMP180;16737;50.932;6.780;2023-08-12T07:25:00;100315.00;;;25.30
9985;BMP180;16737;50.932;6.780;2023-08-12T07:27:27;100335.00;;;25.40
9985;BMP180;16737;50.932;6.780;2023-08-12T07:29:54;100340.00;;;25.40
9985;BMP180;16737;50.932;6.780;2023-08-12T07:32:21;100332.00;;;25.40
9985;BMP180;16737;50.932;6.780;2023-08-12T07:34:48;100321.00;;;25.40
9985;BMP180;16737;50.932;6.780;2023-08-12T07:37:15;100330.00;;;25.40
9985;BMP180;16737;50.932;6.780;2023-08-12T07:39:43;100331.00;;;25.40
9985;BMP180;16737;50.932;6.780;2023-08-12T07:42:11;100317.00;;;25.40
9985;BMP180;16737;50.932;6.780;2023-08-12T07:44:38;100318.00;;;25.40
9985;BMP180;16737;50.932;6.780;2023-08-12T07:47:05;100317.00;;;25.40
9985;BMP180;16737;50.932;6.780;2023-08-12T07:49:32;100320.00;;;25.40
9985;BMP180;16737;50.932;6.780;2023-08-12T07:51:59;100319.00;;;25.50
9985;BMP180;16737;50.932;6.780;2023-08-12T07:54:26;100310.00;;;25.50
9985;BMP180;16737;50.932;6.780;2023-08-12T07:56:54;100306.00;;;25.50
9985;BMP180;16737;50.932;6.780;2023-08-12T07:59:21;100266.00;;;25.50
9985;BMP180;16737;50.932;6.780;2023-08-12T08:01:48;100286.00;;;25.50
9985;BMP180;16737;50.932;6.780;2023-08-12T08:04:15;100296.00;;;25.40
9985;BMP180;16737;50.932;6.780;2023-08-12T08:06:41;100290.00;;;25.40
9985;BMP180;16737;50.932;6.780;2023-08-12T08:09:09;100290.00;;;25.50
9985;BMP180;16737;50.932;6.780;2023-08-12T08:11:36;100288.00;;;25.30
9985;BMP180;16737;50.932;6.780;2023-08-12T08:14:05;100281.00;;;25.50
9985;BMP180;16737;50.932;6.780;2023-08-12T08:16:32;100280.00;;;25.50
9985;BMP180;16737;50.932;6.780;2023-08-12T08:18:59;100287.00;;;25.60
9985;BMP180;16737;50.932;6.780;2023-08-12T08:21:26;100291.00;;;25.60
9985;BMP180;16737;50.932;6.780;2023-08-12T08:23:53;100292.00;;;25.60
9985;BMP180;16737;50.932;6.780;2023-08-12T08:26:20;100293.00;;;25.70
9985;BMP180;16737;50.932;6.780;2023-08-12T08:28:46;100298.00;;;25.70
9985;BMP180;16737;50.932;6.780;2023-08-12T08:31:15;100304.00;;;25.80
9985;BMP180;16737;50.932;6.780;2023-08-12T08:33:42;100322.00;;;25.80
9985;BMP180;16737;50.932;6.780;2023-08-12T08:36:09;100296.00;;;25.80
9985;BMP180;16737;50.932;6.780;2023-08-12T08:38:36;100313.00;;;25.90
9985;BMP180;16737;50.932;6.780;2023-08-12T08:41:08;100311.00;;;25.90
9985;BMP180;16737;50.932;6.780;2023-08-12T08:43:37;100308.00;;;25.90
9985;BMP180;16737;50.932;6.780;2023-08-12T08:46:07;100309.00;;;25.90
9985;BMP180;16737;50.932;6.780;2023-08-12T08:48:35;100310.00;;;25.90
9985;BMP180;16737;50.932;6.780;2023-08-12T08:51:05;100303.00;;;26.00
9985;BMP180;16737;50.932;6.780;2023-08-12T08:53:35;100285.00;;;26.00
9985;BMP180;16737;50.932;6.780;2023-08-12T08:56:05;100303.00;;;26.10
9985;BMP180;16737;50.932;6.780;2023-08-12T08:58:33;100315.00;;;26.10
9985;BMP180;16737;50.932;6.780;2023-08-12T09:01:01;100335.00;;;26.20
9985;BMP180;16737;50.932;6.780;2023-08-12T09:03:29;100326.00;;;26.20
9985;BMP180;16737;50.932;6.780;2023-08-12T09:05:58;100335.00;;;26.30
9985;BMP180;16737;50.932;6.780;2023-08-12T09:08:27;100314.00;;;26.30
9985;BMP180;16737;50.932;6.780;2023-08-12T09:10:56;100338.00;;;26.40
9985;BMP180;16737;50.932;6.780;2023-08-12T09:13:23;100326.00;;;26.40
9985;BMP180;16737;50.932;6.780;2023-08-12T09:15:51;100315.00;;;26.50
9985;BMP180;16737;50.932;6.780;2023-08-12T09:18:18;100330.00;;;26.60
9985;BMP180;16737;50.932;6.780;2023-08-12T09:20:51;100332.00;;;26.60
9985;BMP180;16737;50.932;6.780;2023-08-12T09:23:20;100337.00;;;26.60
9985;BMP180;16737;50.932;6.780;2023-08-12T09:25:47;100340.00;;;26.70
9985;BMP180;16737;50.932;6.780;2023-08-12T09:28:14;100324.00;;;26.70
9985;BMP180;16737;50.932;6.780;2023-08-12T09:30:41;100332.00;;;26.70
9985;BMP180;16737;50.932;6.780;2023-08-12T09:33:08;100332.00;;;26.80
9985;BMP180;16737;50.932;6.780;2023-08-12T09:35:38;100315.00;;;26.80
9985;BMP180;16737;50.932;6.780;2023-08-12T09:38:07;100314.00;;;26.90
9985;BMP180;16737;50.932;6.780;2023-08-12T09:40:36;100326.00;;;26.90
9985;BMP180;16737;50.932;6.780;2023-08-12T09:43:04;100315.00;;;27.00
9985;BMP180;16737;50.932;6.780;2023-08-12T09:45:32;100299.00;;;27.00
9985;BMP180;16737;50.932;6.780;2023-08-12T09:47:59;100316.00;;;27.10
9985;BMP180;16737;50.932;6.780;2023-08-12T09:50:27;100324.00;;;27.10
9985;BMP180;16737;50.932;6.780;2023-08-12T09:52:55;100324.00;;;27.20
9985;BMP180;16737;50.932;6.780;2023-08-12T09:55:24;100326.00;;;27.20
9985;BMP180;16737;50.932;6.780;2023-08-12T09:57:54;100310.00;;;27.30
9985;BMP180;16737;50.932;6.780;2023-08-12T10:00:23;100260.00;;;27.30
9985;BMP180;16737;50.932;6.780;2023-08-12T10:02:52;100324.00;;;27.30
9985;BMP180;16737;50.932;6.780;2023-08-12T10:05:25;100322.00;;;27.40
9985;BMP180;16737;50.932;6.780;2023-08-12T10:07:54;100303.00;;;27.40
9985;BMP180;16737;50.932;6.780;2023-08-12T10:10:21;100334.00;;;27.50
9985;BMP180;16737;50.932;6.780;2023-08-12T10:12:49;100319.00;;;27.50
9985;BMP180;16737;50.932;6.780;2023-08-12T10:15:20;100315.00;;;27.40
9985;BMP180;16737;50.932;6.780;2023-08-12T10:17:48;100324.00;;;27.60
9985;BMP180;16737;50.932;6.780;2023-08-12T10:20:22;100320.00;;;27.60
9985;BMP180;16737;50.932;6.780;2023-08-12T10:22:50;100308.00;;;27.60
9985;BMP180;16737;50.932;6.780;2023-08-12T10:25:19;100294.00;;;27.60
9985;BMP180;16737;50.932;6.780;2023-08-12T10:27:47;100284.00;;;27.70
9985;BMP180;16737;50.932;6.780;2023-08-12T10:30:14;100308.00;;;27.70
9985;BMP180;16737;50.932;6.780;2023-08-12T10:32:43;100314.00;;;27.70
9985;BMP180;16737;50.932;6.780;2023-08-12T10:35:10;100284.00;;;27.70
9985;BMP180;16737;50.932;6.780;2023-08-12T10:37:38;100308.00;;;27.70
9985;BMP180;16737;50.932;6.780;2023-08-12T10:40:19;100304.00;;;27.70
9985;BMP180;16737;50.932;6.780;2023-08-12T10:42:48;100309.00;;;27.80
9985;BMP180;16737;50.932;6.780;2023-08-12T10:45:17;100316.00;;;27.80
9985;BMP180;16737;50.932;6.780;2023-08-12T10:48:17;100307.00;;;27.70
9985;BMP180;16737;50.932;6.780;2023-08-12T10:50:48;100302.00;;;27.80
9985;BMP180;16737;50.932;6.780;2023-08-12T10:53:27;100308.00;;;27.80
9985;BMP180;16737;50.932;6.780;2023-08-12T10:55:59;100300.00;;;27.80
9985;BMP180;16737;50.932;6.780;2023-08-12T10:58:33;100294.00;;;27.80
9985;BMP180;16737;50.932;6.780;2023-08-12T11:01:00;100301.00;;;27.80
9985;BMP180;16737;50.932;6.780;2023-08-12T11:03:34;100299.00;;;27.70
9985;BMP180;16737;50.932;6.780;2023-08-12T11:06:02;100305.00;;;27.70
9985;BMP180;16737;50.932;6.780;2023-08-12T11:08:29;100288.00;;;27.70
9985;BMP180;16737;50.932;6.780;2023-08-12T11:10:56;100289.00;;;27.60
9985;BMP180;16737;50.932;6.780;2023-08-12T11:13:27;100258.00;;;27.60
9985;BMP180;16737;50.932;6.780;2023-08-12T11:16:07;100271.00;;;27.60
9985;BMP180;16737;50.932;6.780;2023-08-12T11:18:36;100270.00;;;27.60
9985;BMP180;16737;50.932;6.780;2023-08-12T11:21:03;100272.00;;;27.60
9985;BMP180;16737;50.932;6.780;2023-08-12T11:23:32;100269.00;;;27.60
9985;BMP180;16737;50.932;6.780;2023-08-12T11:26:00;100276.00;;;27.70
9985;BMP180;16737;50.932;6.780;2023-08-12T11:28:28;100271.00;;;27.70
9985;BMP180;16737;50.932;6.780;2023-08-12T11:30:55;100277.00;;;27.70
9985;BMP180;16737;50.932;6.780;2023-08-12T11:33:24;100273.00;;;27.70
9985;BMP180;16737;50.932;6.780;2023-08-12T11:35:52;100237.00;;;27.70
9985;BMP180;16737;50.932;6.780;2023-08-12T11:38:19;100279.00;;;27.70
9985;BMP180;16737;50.932;6.780;2023-08-12T11:40:46;100273.00;;;27.80
9985;BMP180;16737;50.932;6.780;2023-08-12T11:43:13;100277.00;;;27.80
9985;BMP180;16737;50.932;6.780;2023-08-12T11:45:42;100267.00;;;27.80
9985;BMP180;16737;50.932;6.780;2023-08-12T11:48:09;100267.00;;;27.80
9985;BMP180;16737;50.932;6.780;2023-08-12T11:50:37;100267.00;;;27.90
9985;BMP180;16737;50.932;6.780;2023-08-12T11:53:06;100266.00;;;27.90
9985;BMP180;16737;50.932;6.780;2023-08-12T11:55:33;100265.00;;;28.00
9985;BMP180;16737;50.932;6.780;2023-08-12T11:58:00;100268.00;;;28.00
9985;BMP180;16737;50.932;6.780;2023-08-12T12:00:28;100268.00;;;28.10
9985;BMP180;16737;50.932;6.780;2023-08-12T12:02:56;100267.00;;;28.10
9985;BMP180;16737;50.932;6.780;2023-08-12T12:05:26;100271.00;;;28.10
9985;BMP180;16737;50.932;6.780;2023-08-12T12:07:53;100238.00;;;28.20
9985;BMP180;16737;50.932;6.780;2023-08-12T12:10:27;100265.00;;;28.20
9985;BMP180;16737;50.932;6.780;2023-08-12T12:12:55;100264.00;;;28.20
9985;BMP180;16737;50.932;6.780;2023-08-12T12:15:23;100256.00;;;28.20
9985;BMP180;16737;50.932;6.780;2023-08-12T12:17:50;100245.00;;;28.20
9985;BMP180;16737;50.932;6.780;2023-08-12T12:20:18;100268.00;;;28.20
9985;BMP180;16737;50.932;6.780;2023-08-12T12:22:47;100256.00;;;28.20
9985;BMP180;16737;50.932;6.780;2023-08-12T12:25:16;100263.00;;;28.20
9985;BMP180;16737;50.932;6.780;2023-08-12T12:27:46;100263.00;;;28.20
9985;BMP180;16737;50.932;6.780;2023-08-12T12:30:15;100261.00;;;28.30
9985;BMP180;16737;50.932;6.780;2023-08-12T12:32:43;100265.00;;;28.30
9985;BMP180;16737;50.932;6.780;2023-08-12T12:35:10;100277.00;;;28.30
9985;BMP180;16737;50.932;6.780;2023-08-12T12:37:37;100279.00;;;28.30
9985;BMP180;16737;50.932;6.780;2023-08-12T12:40:06;100279.00;;;28.30
9985;BMP180;16737;50.932;6.780;2023-08-12T12:42:33;100288.00;;;28.40
9985;BMP180;16737;50.932;6.780;2023-08-12T12:45:02;100249.00;;;28.40
9985;BMP180;16737;50.932;6.780;2023-08-12T12:47:29;100286.00;;;28.40
9985;BMP180;16737;50.932;6.780;2023-08-12T12:49:56;100279.00;;;28.40
9985;BMP180;16737;50.932;6.780;2023-08-12T12:52:23;100276.00;;;28.50
9985;BMP180;16737;50.932;6.780;2023-08-12T12:54:50;100277.00;;;28.50
9985;BMP180;16737;50.932;6.780;2023-08-12T12:57:17;100281.00;;;28.60
9985;BMP180;16737;50.932;6.780;2023-08-12T12:59:44;100285.00;;;28.60
9985;BMP180;16737;50.932;6.780;2023-08-12T13:02:12;100306.00;;;28.60
9985;BMP180;16737;50.932;6.780;2023-08-12T13:04:39;100312.00;;;28.60
9985;BMP180;16737;50.932;6.780;2023-08-12T13:07:06;100322.00;;;28.50
9985;BMP180;16737;50.932;6.780;2023-08-12T13:09:33;100334.00;;;28.30
9985;BMP180;16737;50.932;6.780;2023-08-12T13:12:00;100338.00;;;28.20
9985;BMP180;16737;50.932;6.780;2023-08-12T13:14:26;100326.00;;;28.00
9985;BMP180;16737;50.932;6.780;2023-08-12T13:16:55;100334.00;;;27.90
9985;BMP180;16737;50.932;6.780;2023-08-12T13:19:24;100336.00;;;27.80
9985;BMP180;16737;50.932;6.780;2023-08-12T13:21:51;100301.00;;;27.80
9985;BMP180;16737;50.932;6.780;2023-08-12T13:24:17;100351.00;;;27.70
9985;BMP180;16737;50.932;6.780;2023-08-12T13:26:45;100345.00;;;27.70
9985;BMP180;16737;50.932;6.780;2023-08-12T13:29:12;100348.00;;;27.60
9985;BMP180;16737;50.932;6.780;2023-08-12T13:31:39;100348.00;;;27.60
9985;BMP180;16737;50.932;6.780;2023-08-12T13:34:06;100335.00;;;27.60
9985;BMP180;16737;50.932;6.780;2023-08-12T13:36:34;100350.00;;;27.50
9985;BMP180;16737;50.932;6.780;2023-08-12T13:39:02;100347.00;;;27.50
9985;BMP180;16737;50.932;6.780;2023-08-12T13:41:29;100349.00;;;27.40
9985;BMP180;16737;50.932;6.780;2023-08-12T13:43:56;100357.00;;;27.40
9985;BMP180;16737;50.932;6.780;2023-08-12T13:46:23;100352.00;;;27.40
9985;BMP180;16737;50.932;6.780;2023-08-12T13:48:50;100348.00;;;27.50
9985;BMP180;16737;50.932;6.780;2023-08-12T13:51:17;100348.00;;;27.50
9985;BMP180;16737;50.932;6.780;2023-08-12T13:53:45;100355.00;;;27.50
9985;BMP180;16737;50.932;6.780;2023-08-12T13:56:12;100345.00;;;27.60
9985;BMP180;16737;50.932;6.780;2023-08-12T13:58:39;100337.00;;;27.60
9985;BMP180;16737;50.932;6.780;2023-08-12T14:01:05;100332.00;;;27.60
9985;BMP180;16737;50.932;6.780;2023-08-12T14:03:33;100335.00;;;27.70
9985;BMP180;16737;50.932;6.780;2023-08-12T14:05:59;100343.00;;;27.70
9985;BMP180;16737;50.932;6.780;2023-08-12T14:08:26;100349.00;;;27.70
9985;BMP180;16737;50.932;6.780;2023-08-12T14:10:55;100348.00;;;27.80
9985;BMP180;16737;50.932;6.780;2023-08-12T14:13:22;100316.00;;;27.80
9985;BMP180;16737;50.932;6.780;2023-08-12T14:15:48;100356.00;;;27.80